Latest Weather Observations for Rottnest Island

IDW60901

Issued at 6:31 pm WST Monday 27 April 2015 (issued every 10 minutes, with the page automatically refreshed every 10 minutes)

About weather observations | Map of Perth area stations | Latest observations for Perth area | Other Formats
Station Details ID: 009193 Name: ROTTNEST ISLAND Lat: -32.01 Lon: 115.50 Height: 43.1 m
Data from the previous 72 hours. | See also: Recent months at Rottnest Island
Date/Time
WST
Tmp

°C
App
Tmp
°C
Dew
Point
°C
Rel
Hum
%
Delta-T

°C
Wind Press
QNH
hPa
Press
MSL
hPa
Rain
since
9 am
mm
Dir
 
Spd
km/h
Gust
km/h
Spd
kts
Gust
kts
27/06:30pm 22.0 17.5 7.0 38 7.7 E 20 26 11 14 1022.2 1022.1 0.0
27/06:00pm 22.1 17.9 7.5 39 7.6 E 19 24 10 13 1022.1 1022.0 0.0
27/05:30pm 22.6 18.7 7.2 37 8.0 E 17 22 9 12 1021.8 1021.7 0.0
27/05:00pm 23.1 19.3 7.6 37 8.1 ESE 17 22 9 12 1021.7 1021.6 0.0
27/04:30pm 23.7 20.1 6.9 34 8.7 ESE 15 20 8 11 1021.9 1021.8 0.0
27/04:00pm 24.2 19.5 5.1 29 9.6 E 19 26 10 14 1021.9 1021.8 0.0
27/03:30pm 24.4 19.6 5.7 30 9.5 E 20 28 11 15 1022.0 1021.9 0.0
27/03:00pm 24.6 20.2 7.3 33 9.1 E 20 28 11 15 1022.0 1021.9 0.0
27/02:30pm 24.5 19.6 6.7 32 9.2 ENE 22 32 12 17 1021.9 1021.8 0.0
27/02:00pm 24.0 19.0 6.3 32 9.1 E 22 30 12 16 1022.0 1021.9 0.0
27/01:30pm 23.3 17.6 6.6 34 8.6 ENE 26 32 14 17 1022.3 1022.2 0.0
27/01:00pm 22.8 16.7 6.6 35 8.3 ENE 28 35 15 19 1022.7 1022.6 0.0
27/12:30pm 22.2 16.1 6.8 37 7.9 ENE 28 37 15 20 1023.2 1023.1 0.0
27/12:00pm 22.5 16.4 6.7 36 8.1 ENE 28 37 15 20 1023.7 1023.6 0.0
27/11:30am 21.3 14.5 6.8 39 7.4 NE 32 41 17 22 1024.1 1024.0 0.0
27/11:00am 21.2 15.0 7.8 42 6.9 NE 30 41 16 22 1024.4 1024.3 0.0
27/10:30am 20.9 14.2 7.5 42 6.9 NE 32 44 17 24 1024.7 1024.6 0.0
27/10:00am 19.8 12.3 6.5 42 6.6 NE 35 50 19 27 1024.7 1024.6 0.0
27/09:37am 19.4 12.9 6.5 43 6.4 NE 30 52 16 28 1024.7 1024.6 0.0
27/09:30am 19.1 12.1 6.9 45 6.1 NE 33 48 18 26 1024.8 1024.7 0.0
27/09:00am 18.1 11.1 6.9 48 5.6 NE 33 46 18 25 1024.8 1024.7 0.0
27/08:30am 17.5 11.1 7.0 50 5.2 NE 30 44 16 24 1024.9 1024.8 0.0
27/08:00am 17.0 10.6 7.1 52 4.9 ENE 30 41 16 22 1024.7 1024.6 0.0
27/07:30am 16.7 10.3 7.1 53 4.8 ENE 30 44 16 24 1024.4 1024.3 0.0
27/07:00am 16.5 10.8 6.9 53 4.7 ENE 26 37 14 20 1024.3 1024.2 0.0
27/06:30am 16.7 9.8 6.5 51 5.0 NE 32 41 17 22 1024.0 1023.9 0.0
27/06:00am 16.7 10.6 6.8 52 4.9 ENE 28 39 15 21 1023.9 1023.8 0.0
27/05:30am 17.0 10.1 6.5 50 5.2 NE 32 43 17 23 1023.6 1023.5 0.0
27/05:00am 16.8 10.3 6.6 51 5.0 ENE 30 41 16 22 1023.4 1023.3 0.0
27/04:30am 16.9 10.4 6.7 51 5.0 ENE 30 39 16 21 1023.3 1023.2 0.0
27/04:00am 17.1 10.2 6.3 49 5.3 ENE 32 44 17 24 1023.0 1022.9 0.0
27/03:30am 17.3 10.8 6.5 49 5.3 ENE 30 43 16 23 1023.2 1023.1 0.0
27/03:00am 17.4 10.8 6.0 47 5.6 ENE 30 39 16 21 1023.2 1023.1 0.0
27/02:30am 17.7 11.5 6.3 47 5.6 ENE 28 39 15 21 1023.4 1023.3 0.0
27/02:00am 18.0 11.7 5.9 45 5.9 ENE 28 41 15 22 1023.4 1023.3 0.0
27/01:30am 18.3 12.0 5.8 44 6.1 ENE 28 35 15 19 1023.7 1023.6 0.0
27/01:00am 18.3 13.3 6.5 46 5.8 ENE 22 30 12 16 1023.8 1023.7 0.0
27/12:30am 18.2 13.6 6.7 47 5.7 E 20 26 11 14 1023.9 1023.8 0.0
27/12:00am 17.9 13.3 6.4 47 5.7 E 20 24 11 13 1023.9 1023.8 0.0
 
Date/Time
WST
Tmp

°C
App
Tmp
°C
Dew
Point
°C
Rel
Hum
%
Delta-T

°C
Wind Press
QNH
hPa
Press
MSL
hPa
Rain
since
9 am
mm
Dir
 
Spd
km/h
Gust
km/h
Spd
kts
Gust
kts
26/11:30pm 18.1 13.4 6.0 45 5.9 E 20 24 11 13 1024.0 1023.9 0.0
26/11:00pm 18.6 13.9 6.1 44 6.1 E 20 28 11 15 1024.1 1024.0 0.0
26/10:30pm 18.9 14.3 6.4 44 6.2 E 20 32 11 17 1024.1 1024.0 0.0
26/10:00pm 19.1 14.4 5.9 42 6.5 E 20 30 11 16 1024.1 1024.0 0.0
26/09:30pm 19.4 14.4 6.5 43 6.5 E 22 26 12 14 1024.2 1024.1 0.0
26/09:00pm 20.0 15.0 6.4 41 6.8 E 22 30 12 16 1024.2 1024.1 0.0
26/08:30pm 19.8 15.2 6.5 42 6.7 E 20 26 11 14 1024.1 1024.0 0.0
26/08:00pm 20.3 15.7 6.6 41 6.9 E 20 28 11 15 1024.0 1023.9 0.0
26/07:30pm 20.7 16.1 6.3 39 7.2 ENE 20 28 11 15 1023.8 1023.7 0.0
26/07:00pm 20.9 16.2 6.1 38 7.4 ENE 20 28 11 15 1023.6 1023.5 0.0
26/06:30pm 21.2 16.6 6.7 39 7.4 ENE 20 26 11 14 1023.2 1023.1 0.0
26/06:00pm 20.9 17.5 7.5 42 6.9 E 15 20 8 11 1023.0 1022.9 0.0
26/05:30pm 21.6 18.6 5.9 36 7.9 E 11 15 6 8 1022.8 1022.7 0.0
26/05:00pm 22.4 18.5 5.4 33 8.5 E 15 20 8 11 1022.6 1022.5 0.0
26/04:30pm 22.3 19.5 8.4 41 7.4 SE 13 19 7 10 1022.6 1022.5 0.0
26/04:00pm 22.5 18.6 7.1 37 7.9 SSE 17 24 9 13 1022.5 1022.4 0.0
26/03:30pm 22.9 18.8 6.2 34 8.5 ESE 17 24 9 13 1022.4 1022.3 0.0
26/03:00pm 22.9 18.2 6.2 34 8.5 ESE 20 28 11 15 1022.5 1022.4 0.0
26/02:30pm 22.2 17.6 5.6 34 8.3 ESE 19 28 10 15 1022.6 1022.5 0.0
26/02:00pm 22.8 18.3 6.1 34 8.5 E 19 30 10 16 1022.9 1022.8 0.0
26/01:30pm 22.6 17.1 6.0 34 8.4 ENE 24 33 13 18 1023.1 1023.0 0.0
26/01:00pm 22.3 16.8 6.1 35 8.2 ENE 24 30 13 16 1023.2 1023.1 0.0
26/12:30pm 21.6 16.2 6.3 37 7.7 ENE 24 32 13 17 1023.6 1023.5 0.0
26/12:00pm 21.3 15.5 6.4 38 7.5 ENE 26 39 14 21 1024.2 1024.1 0.0
26/11:30am 20.8 15.0 6.4 39 7.3 ENE 26 35 14 19 1024.6 1024.5 0.0
26/11:00am 20.1 14.0 6.8 42 6.7 ENE 28 39 15 21 1024.9 1024.8 0.0
26/10:30am 19.0 12.6 7.1 46 6.0 ENE 30 39 16 21 1025.0 1024.9 0.0
26/10:00am 18.7 12.4 7.5 48 5.7 ENE 30 41 16 22 1025.3 1025.2 0.0
26/09:30am 17.4 11.0 6.9 50 5.2 ENE 30 41 16 22 1025.5 1025.4 0.0
26/09:00am 17.0 10.6 7.1 52 4.9 ENE 30 41 16 22 1025.5 1025.4 0.0
26/08:30am 16.3 9.9 7.0 54 4.6 ENE 30 41 16 22 1025.6 1025.5 0.0
26/08:00am 15.7 8.8 6.4 54 4.5 ENE 32 48 17 26 1025.3 1025.2 0.0
26/07:30am 15.4 9.0 6.9 57 4.2 ENE 30 46 16 25 1024.9 1024.8 0.0
26/07:04am 15.2 9.1 6.5 56 4.2 ENE 28 46 15 25 1024.7 1024.6 0.0
26/07:00am 15.1 8.6 6.7 57 4.1 ENE 30 43 16 23 1024.7 1024.6 0.0
26/06:30am 15.1 8.6 6.4 56 4.2 ENE 30 43 16 23 1024.5 1024.4 0.0
26/06:00am 15.0 8.9 6.8 58 4.0 E 28 37 15 20 1024.3 1024.2 0.0
26/05:30am 15.2 9.1 6.7 57 4.2 E 28 43 15 23 1024.2 1024.1 0.0
26/05:00am 15.2 8.7 6.7 57 4.1 ENE 30 39 16 21 1024.1 1024.0 0.0
26/04:30am 15.2 8.3 6.5 56 4.2 ENE 32 43 17 23 1024.1 1024.0 0.0
26/04:00am 15.5 9.8 6.5 55 4.4 E 26 43 14 23 1023.9 1023.8 0.0
26/03:30am 15.8 9.7 6.5 54 4.5 ENE 28 43 15 23 1023.9 1023.8 0.0
26/03:00am 16.3 9.8 6.7 53 4.7 ENE 30 44 16 24 1024.0 1023.9 0.0
26/02:30am 16.6 9.5 6.4 51 5.0 ENE 33 48 18 26 1023.9 1023.8 0.0
26/02:03am 16.7 10.5 6.2 50 5.1 E 28 48 15 26 1024.1 1024.0 0.0
26/02:00am 16.7 10.6 6.5 51 5.0 E 28 39 15 21 1024.2 1024.1 0.0
26/01:30am 16.8 10.3 6.6 51 5.0 E 30 41 16 22 1024.1 1024.0 0.0
26/01:00am 16.6 11.3 6.7 52 4.9 E 24 32 13 17 1024.2 1024.1 0.0
26/12:30am 16.7 11.3 6.2 50 5.1 E 24 37 13 20 1024.1 1024.0 0.0
26/12:00am 16.8 11.4 6.3 50 5.1 E 24 33 13 18 1024.1 1024.0 0.0
 
Date/Time
WST
Tmp

°C
App
Tmp
°C
Dew
Point
°C
Rel
Hum
%
Delta-T

°C
Wind Press
QNH
hPa
Press
MSL
hPa
Rain
since
9 am
mm
Dir
 
Spd
km/h
Gust
km/h
Spd
kts
Gust
kts
25/11:30pm 16.7 11.6 6.2 50 5.1 E 22 32 12 17 1024.4 1024.3 0.0
25/11:00pm 17.0 12.0 6.5 50 5.1 E 22 33 12 18 1024.6 1024.5 0.0
25/10:30pm 17.2 11.8 6.4 49 5.3 ESE 24 39 13 21 1024.7 1024.6 0.0
25/10:00pm 17.7 11.2 6.3 47 5.6 ESE 30 41 16 22 1024.5 1024.4 0.0
25/09:30pm 18.0 12.6 6.2 46 5.8 ESE 24 35 13 19 1024.5 1024.4 0.0
25/09:00pm 18.1 13.4 6.0 45 5.9 ESE 20 32 11 17 1024.4 1024.3 0.0
25/08:30pm 18.4 14.1 6.9 47 5.8 ESE 19 26 10 14 1024.2 1024.1 0.0
25/08:00pm 18.7 14.1 6.5 45 6.1 ESE 20 30 11 16 1024.0 1023.9 0.0
25/07:30pm 19.0 14.5 6.8 45 6.1 ESE 20 30 11 16 1023.9 1023.8 0.0
25/07:00pm 19.3 14.3 6.4 43 6.4 ESE 22 32 12 17 1023.6 1023.5 0.0
25/06:30pm 19.4 14.7 6.2 42 6.6 ESE 20 26 11 14 1023.4 1023.3 0.0
25/06:00pm 19.9 15.3 5.5 39 7.1 E 19 30 10 16 1023.1 1023.0 0.0
25/05:30pm 20.4 15.6 4.8 36 7.6 E 19 26 10 14 1022.9 1022.8 0.0
25/05:00pm 20.8 17.4 6.0 38 7.4 ESE 13 20 7 11 1022.8 1022.7 0.0
25/04:30pm 21.5 17.3 5.8 36 7.9 ESE 17 26 9 14 1022.6 1022.5 0.0
25/04:00pm 21.3 16.9 4.8 34 8.1 ESE 17 28 9 15 1022.6 1022.5 0.0
25/03:30pm 21.5 17.1 5.0 34 8.1 ESE 17 26 9 14 1022.7 1022.6 0.0
25/03:00pm 21.1 16.1 4.6 34 8.0 ESE 20 30 11 16 1022.8 1022.7 0.0
25/02:30pm 20.7 16.1 5.5 37 7.5 ESE 19 30 10 16 1022.9 1022.8 0.0
25/02:00pm 20.4 15.1 4.8 36 7.6 ESE 22 33 12 18 1023.0 1022.9 0.0
25/01:30pm 20.6 16.2 5.0 36 7.7 E 17 28 9 15 1023.4 1023.3 0.0
25/01:00pm 19.8 15.1 6.2 41 6.8 E 20 30 11 16 1023.9 1023.8 0.0
25/12:30pm 19.7 14.5 5.4 39 7.0 ENE 22 35 12 19 1024.4 1024.3 0.0
25/12:00pm 19.3 14.1 5.7 41 6.7 E 22 32 12 17 1024.8 1024.7 0.0
25/11:30am 19.0 13.2 6.1 43 6.4 ENE 26 35 14 19 1025.3 1025.2 0.0
25/11:00am 18.7 13.0 6.5 45 6.0 ENE 26 37 14 20 1025.5 1025.4 0.0
25/10:30am 17.2 10.5 5.5 46 5.7 ENE 30 39 16 21 1026.0 1025.9 0.0
25/10:00am 16.6 10.0 6.1 50 5.1 ENE 30 43 16 23 1026.4 1026.3 0.0
25/09:30am 15.7 9.2 6.7 55 4.4 ENE 30 39 16 21 1026.7 1026.6 0.0
25/09:00am 15.3 9.2 6.8 57 4.1 ENE 28 41 15 22 1026.8 1026.7 0.0
25/08:30am 15.0 9.3 6.8 58 4.0 ENE 26 39 14 21 1026.9 1026.8 0.0
25/08:00am 14.4 7.9 6.7 60 3.7 ENE 30 41 16 22 1026.8 1026.7 0.0
25/07:30am 13.9 7.8 6.7 62 3.5 E 28 37 15 20 1026.5 1026.4 0.0
25/07:00am 13.6 8.7 6.7 63 3.3 E 22 32 12 17 1026.2 1026.1 0.0
25/06:30am 13.7 8.7 6.6 62 3.4 ENE 22 32 12 17 1025.9 1025.8 0.0
25/06:00am 13.8 8.5 6.7 62 3.4 ENE 24 35 13 19 1025.6 1025.5 0.0
25/05:30am 13.9 8.2 6.5 61 3.6 ENE 26 39 14 21 1025.5 1025.4 0.0
25/05:00am 14.2 7.7 6.6 60 3.7 ENE 30 46 16 25 1025.3 1025.2 0.0
25/04:57am 14.2 8.0 6.3 59 3.8 ENE 28 46 15 25 1025.3 1025.2 0.0
25/04:30am 14.4 7.5 6.5 59 3.8 E 32 43 17 23 1025.1 1025.0 0.0
25/04:08am 14.4 7.9 6.5 59 3.8 ENE 30 48 16 26 1025.1 1025.0 0.0
25/04:00am 14.6 8.1 6.7 59 3.8 ENE 30 43 16 23 1025.1 1025.0 0.0
25/03:37am 14.5 8.0 6.3 58 4.0 E 30 48 16 26 1025.0 1024.9 0.0
25/03:30am 14.7 7.8 6.3 57 4.1 E 32 43 17 23 1024.9 1024.8 0.0
25/03:19am 14.8 8.7 6.4 57 4.1 ENE 28 46 15 25 1024.9 1024.8 0.0
25/03:00am 14.9 8.3 6.2 56 4.2 E 30 46 16 25 1024.8 1024.7 0.0
25/02:41am 15.1 7.9 6.1 55 4.3 E 33 52 18 28 1024.8 1024.7 0.0
25/02:30am 15.1 8.1 6.1 55 4.3 E 32 44 17 24 1024.8 1024.7 0.0
25/02:00am 15.2 9.1 6.5 56 4.2 E 28 43 15 23 1024.9 1024.8 0.0
25/01:30am 15.4 8.9 6.4 55 4.4 E 30 46 16 25 1025.2 1025.1 0.0
25/01:07am 15.5 9.0 6.5 55 4.4 E 30 50 16 27 1025.0 1024.9 0.0
25/01:00am 15.7 8.7 6.7 55 4.4 E 33 48 18 26 1025.0 1024.9 0.0
25/12:40am 15.9 8.4 6.3 53 4.7 E 35 57 19 31 1024.9 1024.8 0.0
25/12:30am 15.9 8.5 6.6 54 4.6 E 35 50 19 27 1025.0 1024.9 0.0
25/12:07am 16.0 9.9 6.4 53 4.7 E 28 48 15 26 1025.1 1025.0 0.0
25/12:00am 15.7 10.4 7.0 56 4.3 E 24 33 13 18 1025.3 1025.2 0.0
 
Date/Time
WST
Tmp

°C
App
Tmp
°C
Dew
Point
°C
Rel
Hum
%
Delta-T

°C
Wind Press
QNH
hPa
Press
MSL
hPa
Rain
since
9 am
mm
Dir
 
Spd
km/h
Gust
km/h
Spd
kts
Gust
kts
24/11:30pm 15.9 10.1 6.3 53 4.7 E 26 37 14 20 1025.4 1025.3 0.0
24/11:00pm 16.2 10.0 6.3 52 4.8 E 28 41 15 22 1025.4 1025.3 0.0
24/10:42pm 16.4 9.8 6.2 51 5.0 E 30 48 16 26 1025.4 1025.3 0.0
24/10:30pm 16.2 10.7 6.1 51 4.9 E 24 43 13 23 1025.5 1025.4 0.0
24/10:11pm 16.4 10.2 6.0 50 5.1 E 28 48 15 26 1025.7 1025.6 0.0
24/10:00pm 16.3 10.9 6.2 51 4.9 E 24 39 13 21 1025.8 1025.7 0.0
24/09:30pm 16.6 10.3 5.9 49 5.2 E 28 39 15 21 1025.8 1025.7 0.0
24/09:00pm 16.8 10.5 5.7 48 5.3 E 28 41 15 22 1025.6 1025.5 0.0
24/08:30pm 17.0 10.8 6.2 49 5.3 ESE 28 43 15 23 1025.7 1025.6 0.0
24/08:18pm 17.2 10.9 5.8 47 5.5 ESE 28 46 15 25 1025.5 1025.4 0.0
24/08:00pm 17.6 11.3 5.5 45 5.8 ESE 28 41 15 22 1025.5 1025.4 0.0
24/07:30pm 17.9 12.4 5.8 45 5.9 ESE 24 35 13 19 1025.5 1025.4 0.0
24/07:00pm 17.9 13.0 5.2 43 6.1 ESE 20 32 11 17 1025.3 1025.2 0.0

Latest Capital City Observations: Canberra | Sydney | Melbourne | Brisbane | Adelaide | Perth | Hobart | Darwin

Other Formats:

Comma delimited format used in spreadsheet applications
http://www.bom.gov.au/fwo/IDW60901/IDW60901.94602.axf

JavaScript Object Notation format (JSON) in row-major order
http://www.bom.gov.au/fwo/IDW60901/IDW60901.94602.json